Flight Track Log - Related Links

Times and Time Zones

All times are in EDT time to prevent confusion due to time zone crossing. See the SKQ225 flight status page for this flight to view local times or setup timezone preferences in your user account.

Time Position Orientation Groundspeed Altitude Reporting Facility
EDT Latitude Longitude Course Direction KTS MPH feet Rate Location/Type
Sat 01:28:49 AM 40.0258 -83.2122 228° Southwest 144 166 4,500  Level Indianapolis Center
Sat 01:29:56 AM 39.9908 -83.2625 228° Southwest 164 189 5,300 672 Climbing Indianapolis Center
Sat 01:31:03 AM 39.9581 -83.3106 228° Southwest 164 189 6,000 331 Climbing Indianapolis Center
Sat 01:32:03 AM 39.9211 -83.3578 224° Southwest 192 221 6,000  Level Indianapolis Center
Sat 01:33:04 AM 39.8861 -83.4106 229° Southwest 190 219 6,000  Level Indianapolis Center
Sat 01:34:04 AM 39.8511 -83.4606 228° Southwest 189 217 6,000  Level Indianapolis Center
Sat 01:35:05 AM 39.8136 -83.5131 227° Southwest 204 235 6,000  Level Indianapolis Center
Sat 01:36:06 AM 39.7806 -83.5589 227° Southwest 190 219 6,000  Level Indianapolis Center
Sat 01:37:06 AM 39.7444 -83.6097 227° Southwest 190 219 6,000  Level Indianapolis Center
Sat 01:38:07 AM 39.7061 -83.6653 228° Southwest 187 215 6,000  Level Indianapolis Center
Sat 01:39:07 AM 39.6711 -83.7125 226° Southwest 186 214 6,000  Level Indianapolis Center
Sat 01:40:07 AM 39.6367 -83.7603 227° Southwest 189 217 6,000  Level Indianapolis Center
Sat 01:41:07 AM 39.6003 -83.8111 227° Southwest 190 219 6,000  Level Indianapolis Center
Sat 01:42:07 AM 39.5642 -83.8611 227° Southwest 189 217 6,000  Level Indianapolis Center
Sat 01:43:08 AM 39.5275 -83.9119 227° Southwest 191 220 6,000  Level Indianapolis Center
Sat 01:44:08 AM 39.4908 -83.9631 227° Southwest 191 220 6,000  Level Indianapolis Center
Sat 01:45:08 AM 39.4547 -84.0131 227° Southwest 190 219 6,000  Level Indianapolis Center
Sat 01:46:08 AM 39.4186 -84.0636 227° Southwest 189 217 6,000  Level Indianapolis Center
Sat 01:47:08 AM 39.3881 -84.1056 227° Southwest 190 219 6,000  Level Indianapolis Center
Sat 01:48:09 AM 39.3517 -84.1556 227° Southwest 190 219 6,000  Level Indianapolis Center
Sat 01:49:09 AM 39.3153 -84.2056 227° Southwest 190 219 6,000  Level Indianapolis Center
Sat 01:50:09 AM 39.2781 -84.2553 226° Southwest 190 219 6,000  Level Indianapolis Center
Sat 01:51:09 AM 39.2422 -84.3069 228° Southwest 191 220 6,000  Level Indianapolis Center
Sat 01:52:09 AM 39.2061 -84.3572 227° Southwest 191 220 6,000  Level Indianapolis Center
Sat 01:53:10 AM 39.1689 -84.4069 226° Southwest 190 219 6,000  Level Indianapolis Center
Sat 01:54:10 AM 39.1322 -84.4572 227° Southwest 191 220 6,000  Level Indianapolis Center
Sat 01:54:54 AM 39.1000 -84.5000 226° Southwest 188 216 6,000  Level Cincinnati TRACON
Sat 01:55:54 AM 39.0667 -84.5500 229° Southwest 186 214 6,000  Level Cincinnati TRACON
Sat 01:56:54 AM 39.0333 -84.5833 218° Southwest 187 215 6,000  Level Cincinnati TRACON
Sat 01:57:54 AM 39.0000 -84.6333 229° Southwest 184 212 6,000  Level Cincinnati TRACON
Sat 01:58:54 AM 38.9667 -84.6833 229° Southwest 180 207 6,000  Level Cincinnati TRACON
Sat 01:59:48 AM 38.9333 -84.7333 229° Southwest 181 208 6,000  Level Cincinnati TRACON
Sat 02:00:48 AM 38.9000 -84.7833 229° Southwest 180 207 6,000  Level Cincinnati TRACON
Sat 02:01:48 AM 38.8667 -84.8167 218° Southwest 180 207 6,000  Level Cincinnati TRACON
Sat 02:02:11 AM 38.8528 -84.8350 226° Southwest 178 205 6,000  Level Indianapolis Center
Sat 02:03:11 AM 38.8169 -84.8831 226° Southwest 184 212 6,000  Level Indianapolis Center
Sat 02:04:11 AM 38.7828 -84.9297 227° Southwest 183 211 6,000  Level Indianapolis Center
Sat 02:05:12 AM 38.7483 -84.9756 226° Southwest 179 206 6,000  Level Indianapolis Center
Sat 02:06:12 AM 38.7128 -85.0214 225° Southwest 178 205 6,000  Level Indianapolis Center
Sat 02:07:12 AM 38.6800 -85.0675 228° Southwest 177 204 6,000  Level Indianapolis Center
Sat 02:08:12 AM 38.6458 -85.1125 226° Southwest 175 201 6,000  Level Indianapolis Center
Sat 02:09:12 AM 38.6106 -85.1603 227° Southwest 181 208 6,000  Level Indianapolis Center
Sat 02:10:12 AM 38.5722 -85.2114 226° Southwest 178 205 6,000  Level Indianapolis Center
Sat 02:11:13 AM 38.5381 -85.2564 226° Southwest 176 203 6,000  Level Indianapolis Center
Sat 02:12:13 AM 38.5028 -85.3031 226° Southwest 179 206 6,000  Level Indianapolis Center
Sat 02:13:13 AM 38.4761 -85.3389 226° Southwest 177 204 6,000  Level Indianapolis Center
Sat 02:14:13 AM 38.4422 -85.3839 226° Southwest 177 204 6,000  Level Indianapolis Center
Sat 02:15:13 AM 38.4092 -85.4275 226° Southwest 171 197 6,000 -250 Level Indianapolis Center
Sat 02:16:13 AM 38.3714 -85.4653 218° Southwest 175 201 5,500 -650 Descending Indianapolis Center
Sat 02:17:13 AM 38.3231 -85.4919 203° Southwest 184 212 4,700 -700 Descending Indianapolis Center
Sat 02:18:13 AM 38.2764 -85.5208 206° Southwest 185 213 4,100 -595 Descending Indianapolis Center
Sat 02:19:14 AM 38.2319 -85.5500 207° Southwest 184 212 3,500 -545 Descending Indianapolis Center
Sat 02:20:14 AM 38.1889 -85.5817 210° Southwest 182 209 3,000 -250 Descending Indianapolis Center
Sat 02:21:14 AM 38.1367 -85.6203 210° Southwest 182 209 3,000  Level Indianapolis Center
Sat 02:23:00 AM 38.1604 -85.6940 230° Southwest  Level Estimated
Sat 02:30:00 AM 38.1667 -85.7333 230° Southwest  Level FlightAware Approximate
Sat 02:31:00 AM 38.1741 -85.7365 230° Southwest  Level Estimated

Login

Don't have an account? Register now (free) for customized features, flight alerts, and more!